• images/banner/banner1.jpg
  • images/banner/banner2.jpg

Team Member Login

Aviation Weather

[source: ADDS]
METAR
EGVN 270750Z 10005KT CAVOK 18/16 Q1010 BLU NOSIG =
TAF
TAF EGVN 270748Z 2709/2809 16010KT 9999 FEW018 TEMPO 2709/2712 SCT015 PROB30 TEMPO 2712/2718 19015G25KT PROB30 TEMPO 2800/2809 SCT007 =